VLVT/VTE METAR and TAF weather

Enter ICAO airport designator
Station Type Date Time Source
VLVT METAR 2018/12/11 16:30 UTC NOAA

VLVT 111630Z 06008KT 4000 BR BKN040 BKN083 25/18 Q1015 NOSIG


Station Type Date Time Source
VLVT Decoded METAR 2018/12/11 16:30 UTC NOAA

Vientiane, Laos (VLVT) 17-57N 102-34E 171M
Dec 11, 2018 - 11:30 AM EST / 2018.12.11 1630 UTC
Wind: from the ENE (060 degrees) at 9 MPH (8 KT):0
Visibility: 2 mile(s):0
Sky conditions: mostly cloudy
Weather: mist
Temperature: 77 F (25 C)
Dew Point: 64 F (18 C)
Relative Humidity: 65%
Pressure (altimeter): 29.97 in. Hg (1015 hPa)
ob: VLVT 111630Z 06008KT 4000 BR BKN040 BKN083 25/18 Q1015 NOSIG
cycle: 16

Station Type Date Time Source
VLVT TAF 2018/12/11 18:39 UTC NOAA

TAF TAF VLVT 111700Z 1118/1218 30004KT 8000 SCT020 BKN040
TEMPO 1118/1122 4000 BR BKN040 BKN083


Example: see airport list